Time;durP1;ratioP1;P1;durP2;ratioP2;P2;SDS_P1;SDS_P2;PMS_P1;PMS_P2;Temp;Humidity;BMP_temperature;BMP_pressure;BME280_temperature;BME280_humidity;BME280_pressure;Samples;Min_cycle;Max_cycle;Signal;HPM_P1;HPM_P2
2021/01/06 00:00:46;;;;;;;3.28;0.95;;;14.70;52.90;;;;;;4996328;28;20103;-81
2021/01/06 00:03:15;;;;;;;2.60;0.70;;;14.70;53.00;;;;;;4977840;28;20368;-81
2021/01/06 00:05:41;;;;;;;1.92;0.60;;;14.70;52.90;;;;;;4984223;28;20407;-81
2021/01/06 00:08:08;;;;;;;1.80;0.90;;;14.70;52.90;;;;;;4967254;28;20042;-81
2021/01/06 00:10:34;;;;;;;2.03;0.80;;;14.70;52.90;;;;;;4998882;28;20437;-81
2021/01/06 00:13:00;;;;;;;1.45;0.82;;;14.70;52.90;;;;;;4999682;28;20454;-81
2021/01/06 00:15:31;;;;;;;1.52;0.63;;;14.70;52.90;;;;;;4981307;28;20043;-81
2021/01/06 00:17:56;;;;;;;3.38;1.20;;;14.70;52.80;;;;;;4963132;28;20051;-81
2021/01/06 00:20:24;;;;;;;2.38;0.98;;;14.70;52.80;;;;;;4982940;28;20053;-81
2021/01/06 00:22:50;;;;;;;2.05;0.73;;;14.70;52.80;;;;;;4998634;28;20360;-81
2021/01/06 00:25:25;;;;;;;3.97;1.20;;;14.70;52.80;;;;;;4999256;28;20140;-81
2021/01/06 00:27:52;;;;;;;2.78;0.77;;;14.70;52.70;;;;;;4999154;28;20054;-81
2021/01/06 00:30:25;;;;;;;3.38;0.80;;;14.70;52.70;;;;;;4998249;28;20046;-81
2021/01/06 00:32:52;;;;;;;2.08;0.75;;;14.60;52.60;;;;;;4997635;28;20108;-81
2021/01/06 00:35:19;;;;;;;2.90;0.88;;;14.70;52.70;;;;;;4998697;28;20182;-81
2021/01/06 00:37:46;;;;;;;3.78;0.90;;;14.60;52.60;;;;;;4998869;28;20043;-81
2021/01/06 00:40:12;;;;;;;3.60;0.90;;;14.70;52.70;;;;;;4999015;28;20125;-81
2021/01/06 00:42:39;;;;;;;2.65;0.90;;;14.60;52.60;;;;;;4995735;28;20061;-81
2021/01/06 00:45:06;;;;;;;2.03;1.08;;;14.70;52.60;;;;;;4981249;28;20258;-81
2021/01/06 00:47:32;;;;;;;3.80;0.93;;;14.70;52.60;;;;;;4963395;28;20509;-81
2021/01/06 00:49:58;;;;;;;4.15;1.08;;;14.60;52.60;;;;;;4998629;28;20192;-81
2021/01/06 00:52:24;;;;;;;2.15;0.75;;;14.60;52.50;;;;;;4998475;28;20070;-81
2021/01/06 00:54:50;;;;;;;2.50;0.90;;;14.60;52.50;;;;;;4998672;28;20045;-81
2021/01/06 00:57:16;;;;;;;4.00;1.10;;;14.60;52.50;;;;;;4980605;28;20054;-81
2021/01/06 00:59:44;;;;;;;2.80;0.98;;;14.60;52.50;;;;;;4998044;28;20046;-81
2021/01/06 01:02:10;;;;;;;2.40;1.30;;;14.60;52.60;;;;;;4998115;28;20104;-81
2021/01/06 01:04:36;;;;;;;4.50;1.35;;;14.60;52.50;;;;;;4993250;28;20410;-81
2021/01/06 01:07:01;;;;;;;3.05;0.88;;;14.60;52.50;;;;;;4978986;28;20039;-81
2021/01/06 01:09:27;;;;;;;3.22;1.10;;;14.60;52.60;;;;;;4978923;28;20127;-81
2021/01/06 01:11:53;;;;;;;1.95;1.23;;;14.60;52.60;;;;;;4983846;28;20062;-81
2021/01/06 01:14:19;;;;;;;2.67;1.00;;;14.60;52.50;;;;;;4997749;28;20058;-81
2021/01/06 01:16:46;;;;;;;2.22;1.00;;;14.60;52.50;;;;;;4997893;28;20346;-81
2021/01/06 01:19:13;;;;;;;3.25;1.10;;;14.60;52.40;;;;;;4963986;28;20339;-81
2021/01/06 01:21:39;;;;;;;1.85;1.00;;;14.60;52.40;;;;;;4993380;28;20088;-81
2021/01/06 01:24:06;;;;;;;2.28;0.88;;;14.60;52.40;;;;;;4998677;28;20047;-81
2021/01/06 01:26:32;;;;;;;3.50;1.13;;;14.60;52.40;;;;;;4970832;28;20118;-81
2021/01/06 01:28:58;;;;;;;2.90;1.17;;;14.60;52.40;;;;;;4978093;28;20130;-81
2021/01/06 01:31:34;;;;;;;4.97;1.20;;;14.60;52.40;;;;;;4961317;28;20343;-82
2021/01/06 01:34:00;;;;;;;2.35;1.10;;;14.60;52.40;;;;;;4993706;28;20043;-81
2021/01/06 01:36:28;;;;;;;4.45;1.13;;;14.60;52.40;;;;;;4994405;28;20062;-81
2021/01/06 01:38:54;;;;;;;4.55;1.45;;;14.60;52.40;;;;;;4988111;28;20073;-81
2021/01/06 01:41:23;;;;;;;3.13;0.98;;;14.60;52.40;;;;;;4997414;28;20390;-81
2021/01/06 01:43:49;;;;;;;2.65;0.90;;;14.60;52.30;;;;;;4996897;28;20053;-81
2021/01/06 01:46:33;;;;;;;5.40;1.02;;;14.60;52.40;;;;;;4997797;28;20136;-81
2021/01/06 01:49:00;;;;;;;1.52;0.80;;;14.60;52.40;;;;;;4978827;28;20046;-81
2021/01/06 01:51:37;;;;;;;2.22;0.82;;;14.60;52.40;;;;;;4978242;28;20066;-81
2021/01/06 01:54:08;;;;;;;2.63;0.95;;;14.60;52.30;;;;;;4996404;28;20038;-81
2021/01/06 01:56:56;;;;;;;1.88;0.77;;;14.60;52.40;;;;;;4995742;28;20073;-81
2021/01/06 01:59:36;;;;;;;2.72;1.23;;;14.60;52.30;;;;;;4997599;28;20042;-81
2021/01/06 02:02:10;;;;;;;3.58;1.13;;;14.60;52.40;;;;;;4995003;28;20108;-81
2021/01/06 02:04:46;;;;;;;2.80;0.80;;;14.60;52.30;;;;;;4968996;28;20081;-81
2021/01/06 02:07:17;;;;;;;2.45;0.88;;;14.60;52.40;;;;;;4977559;28;20066;-81
2021/01/06 02:09:48;;;;;;;2.80;1.20;;;14.60;52.40;;;;;;4977861;28;20047;-81
2021/01/06 02:12:21;;;;;;;2.05;0.80;;;14.60;52.40;;;;;;4982922;28;20128;-81
2021/01/06 02:15:14;;;;;;;3.35;0.98;;;14.60;52.40;;;;;;4996071;28;20042;-81
2021/01/06 02:17:40;;;;;;;3.35;1.15;;;14.60;52.30;;;;;;5008236;28;20129;-81
2021/01/06 02:20:17;;;;;;;3.35;1.30;;;14.60;52.40;;;;;;4993275;28;20134;-81
2021/01/06 02:22:44;;;;;;;1.58;0.98;;;14.60;52.40;;;;;;4996468;28;20077;-81
2021/01/06 02:25:11;;;;;;;2.85;1.10;;;14.60;52.40;;;;;;4997220;28;20042;-81
2021/01/06 02:27:38;;;;;;;1.50;0.80;;;14.60;52.30;;;;;;4997001;28;20072;-81
2021/01/06 02:30:06;;;;;;;2.50;0.80;;;14.60;52.30;;;;;;4979490;28;20081;-81
2021/01/06 02:32:32;;;;;;;2.95;1.00;;;14.50;52.20;;;;;;4996565;28;20038;-81
2021/01/06 02:34:58;;;;;;;3.58;0.90;;;14.60;52.20;;;;;;4994506;28;20400;-81
2021/01/06 02:37:24;;;;;;;2.92;1.08;;;14.50;52.20;;;;;;4978971;28;20125;-81
2021/01/06 02:39:51;;;;;;;3.28;0.90;;;14.50;52.20;;;;;;4968339;28;20050;-81
2021/01/06 02:42:17;;;;;;;3.72;1.30;;;14.50;52.20;;;;;;4964574;28;20058;-81
2021/01/06 02:44:45;;;;;;;2.78;1.42;;;14.60;52.20;;;;;;4995182;28;20116;-81
2021/01/06 02:47:12;;;;;;;1.50;0.80;;;14.50;52.10;;;;;;4996372;28;20046;-81
2021/01/06 02:49:38;;;;;;;2.80;1.20;;;14.60;52.10;;;;;;4980194;28;20121;-81
2021/01/06 02:52:22;;;;;;;3.05;1.23;;;14.50;52.00;;;;;;4978743;28;20085;-81
2021/01/06 02:54:50;;;;;;;3.17;1.10;;;14.60;52.10;;;;;;4995099;28;20050;-81
2021/01/06 02:57:17;;;;;;;2.00;0.77;;;14.60;52.10;;;;;;4996182;28;20409;-81
2021/01/06 02:59:50;;;;;;;3.17;1.10;;;14.50;52.10;;;;;;4995822;28;20073;-81
2021/01/06 03:02:21;;;;;;;2.15;0.80;;;14.60;52.00;;;;;;4977976;28;20042;-81
2021/01/06 03:05:01;;;;;;;2.30;0.75;;;14.50;52.00;;;;;;4996481;28;20050;-81
2021/01/06 03:07:28;;;;;;;3.05;1.00;;;14.60;52.00;;;;;;4995282;28;20038;-81
2021/01/06 03:09:54;;;;;;;3.92;1.10;;;14.50;52.00;;;;;;4993750;28;20068;-81
2021/01/06 03:12:27;;;;;;;2.15;1.10;;;14.50;51.90;;;;;;4981266;28;20447;-81
2021/01/06 03:14:53;;;;;;;2.78;1.02;;;14.50;51.90;;;;;;4994338;28;20046;-81
2021/01/06 03:17:19;;;;;;;5.28;1.17;;;14.50;51.90;;;;;;4978771;28;20120;-81
2021/01/06 03:19:52;;;;;;;4.68;1.48;;;14.50;51.90;;;;;;4978626;28;20454;-81
2021/01/06 03:22:23;;;;;;;1.90;1.08;;;14.60;51.90;;;;;;4981022;28;20046;-81
2021/01/06 03:25:00;;;;;;;2.25;1.00;;;14.50;51.90;;;;;;4992845;28;20053;-81
2021/01/06 03:27:28;;;;;;;2.53;0.90;;;14.50;51.80;;;;;;4992255;28;20051;-81
2021/01/06 03:29:54;;;;;;;2.95;1.40;;;14.50;51.80;;;;;;4977446;28;20114;-81
2021/01/06 03:32:52;;;;;;;2.25;1.00;;;14.50;51.80;;;;;;4963884;28;20043;-81
2021/01/06 03:35:32;;;;;;;3.10;1.20;;;14.50;51.80;;;;;;4994733;28;20484;-81
2021/01/06 03:38:24;;;;;;;2.13;1.13;;;14.50;51.80;;;;;;4995527;28;20050;-81
2021/01/06 03:40:53;;;;;;;5.35;1.10;;;14.50;51.70;;;;;;4996068;28;20472;-81
2021/01/06 03:43:19;;;;;;;3.30;1.08;;;14.50;51.70;;;;;;4981321;28;20053;-81
2021/01/06 03:45:49;;;;;;;2.92;0.73;;;14.50;51.60;;;;;;4998514;28;20057;-81
2021/01/06 03:48:21;;;;;;;1.85;0.93;;;14.50;51.60;;;;;;4981389;28;20049;-81
2021/01/06 03:50:51;;;;;;;1.98;1.23;;;14.50;51.60;;;;;;4999869;28;20046;-81
2021/01/06 03:53:34;;;;;;;3.35;0.98;;;14.50;51.60;;;;;;4999263;28;20129;-81
2021/01/06 03:56:05;;;;;;;2.55;1.17;;;14.50;51.60;;;;;;4998966;28;20042;-81
2021/01/06 03:58:52;;;;;;;2.55;1.27;;;14.50;51.50;;;;;;4982591;28;20042;-81
2021/01/06 04:01:51;;;;;;;1.98;1.00;;;14.50;51.50;;;;;;4997261;28;20112;-80
2021/01/06 04:04:30;;;;;;;3.33;1.30;;;14.40;51.40;;;;;;4999753;28;20058;-81
2021/01/06 04:07:00;;;;;;;3.60;1.20;;;14.50;51.50;;;;;;4998772;28;20065;-81
2021/01/06 04:09:41;;;;;;;3.08;1.27;;;14.50;51.50;;;;;;4982182;28;20057;-81
2021/01/06 04:12:10;;;;;;;2.00;0.88;;;14.50;51.40;;;;;;4998936;28;20350;-81
2021/01/06 04:14:37;;;;;;;2.40;1.17;;;14.50;51.40;;;;;;4999408;28;20061;-81
2021/01/06 04:17:21;;;;;;;2.28;1.15;;;14.40;51.30;;;;;;4981069;28;20580;-81
2021/01/06 04:20:00;;;;;;;2.70;0.77;;;14.50;51.30;;;;;;4981682;28;20115;-81
2021/01/06 04:22:41;;;;;;;4.70;1.55;;;14.50;51.40;;;;;;4981769;28;20046;-81
2021/01/06 04:25:28;;;;;;;2.30;1.10;;;14.50;51.30;;;;;;4997304;28;20106;-81
2021/01/06 04:27:57;;;;;;;1.80;1.00;;;14.50;51.30;;;;;;4981632;28;20057;-81
2021/01/06 04:30:31;;;;;;;3.38;1.25;;;14.50;51.30;;;;;;4981184;28;20046;-81
2021/01/06 04:32:58;;;;;;;4.10;1.08;;;14.40;51.20;;;;;;4999305;28;20070;-81
2021/01/06 04:35:26;;;;;;;3.40;0.85;;;14.50;51.30;;;;;;4963747;28;20069;-81
2021/01/06 04:37:52;;;;;;;3.15;1.10;;;14.50;51.30;;;;;;4979593;28;20453;-81
2021/01/06 04:40:21;;;;;;;2.47;1.20;;;14.50;51.30;;;;;;4991437;28;20465;-81
2021/01/06 04:42:48;;;;;;;3.63;1.27;;;14.50;51.30;;;;;;4984661;28;20081;-81
2021/01/06 04:45:21;;;;;;;2.95;1.25;;;14.40;51.30;;;;;;4979622;28;20057;-81
2021/01/06 04:47:47;;;;;;;2.25;0.98;;;14.50;51.30;;;;;;4962130;28;20437;-81
2021/01/06 04:50:44;;;;;;;2.45;0.90;;;14.50;51.40;;;;;;4995450;28;20038;-81
2021/01/06 04:53:13;;;;;;;2.60;1.52;;;14.50;51.40;;;;;;4999206;28;20346;-81
2021/01/06 04:55:57;;;;;;;2.42;0.93;;;14.50;51.40;;;;;;4996922;28;20053;-81
2021/01/06 04:58:35;;;;;;;1.70;0.90;;;14.40;51.30;;;;;;4997989;28;20046;-81
2021/01/06 05:01:31;;;;;;;3.53;1.38;;;14.50;51.40;;;;;;4981107;28;20050;-81
2021/01/06 05:04:17;;;;;;;3.83;1.05;;;14.50;51.30;;;;;;4998203;28;20065;-81
2021/01/06 05:07:01;;;;;;;2.90;1.10;;;14.50;51.30;;;;;;4993350;28;20054;-80
2021/01/06 05:09:34;;;;;;;1.98;0.90;;;14.50;51.30;;;;;;4995083;28;20049;-84
2021/01/06 05:12:13;;;;;;;3.53;1.02;;;14.50;51.50;;;;;;4979066;28;20053;-80
2021/01/06 05:15:09;;;;;;;3.60;1.08;;;14.50;51.70;;;;;;4978136;28;20470;-79
2021/01/06 05:17:37;;;;;;;3.72;1.08;;;14.50;51.90;;;;;;4984900;28;20066;-81
2021/01/06 05:20:04;;;;;;;5.03;1.00;;;14.60;52.10;;;;;;4962192;28;20050;-80
2021/01/06 05:22:30;;;;;;;7.30;1.75;;;14.60;52.30;;;;;;4970700;28;20038;-80
2021/01/06 05:24:56;;;;;;;6.50;1.20;;;14.60;52.40;;;;;;4998130;28;20050;-83
2021/01/06 05:27:27;;;;;;;2.95;1.00;;;14.70;52.50;;;;;;4997455;28;20057;-79
2021/01/06 05:29:56;;;;;;;4.03;0.90;;;14.70;52.50;;;;;;4997187;28;20038;-78
2021/01/06 05:32:24;;;;;;;2.55;0.80;;;14.80;52.60;;;;;;4990041;28;20450;-80
2021/01/06 05:34:54;;;;;;;3.67;0.88;;;14.90;52.60;;;;;;4961162;28;20461;-80
2021/01/06 05:37:22;;;;;;;2.67;0.90;;;14.90;52.70;;;;;;4977879;28;20524;-81
2021/01/06 05:39:49;;;;;;;3.40;0.90;;;15.00;53.00;;;;;;4997598;28;20438;-81
2021/01/06 05:42:25;;;;;;;5.10;0.90;;;15.00;53.10;;;;;;4997504;28;20078;-81
2021/01/06 05:44:55;;;;;;;4.53;1.48;;;15.10;53.20;;;;;;4997322;28;20038;-81
2021/01/06 05:47:40;;;;;;;2.80;0.90;;;15.10;53.40;;;;;;4983285;28;20035;-81
2021/01/06 05:50:16;;;;;;;4.80;1.00;;;15.20;53.70;;;;;;4977754;28;20143;-81
2021/01/06 05:52:51;;;;;;;7.75;0.98;;;15.20;53.90;;;;;;4978891;28;20458;-79
2021/01/06 05:55:18;;;;;;;9.90;1.42;;;15.30;54.00;;;;;;4994741;28;20101;-78
2021/01/06 05:58:05;;;;;;;8.73;1.20;;;15.30;54.30;;;;;;4997232;28;20038;-81
2021/01/06 06:00:41;;;;;;;10.23;1.17;;;15.40;54.60;;;;;;4997050;28;20117;-80
2021/01/06 06:03:44;;;;;;;6.10;1.08;;;15.60;55.10;;;;;;4996522;28;20050;-80
2021/01/06 06:06:42;;;;;;;8.23;1.20;;;15.60;55.50;;;;;;4977525;28;20071;-79
2021/01/06 06:09:29;;;;;;;9.38;1.73;;;15.70;55.80;;;;;;4977892;28;20054;-80
2021/01/06 06:12:34;;;;;;;9.15;1.10;;;15.80;55.80;;;;;;4977816;28;20126;-81
2021/01/06 06:15:15;;;;;;;8.13;1.17;;;15.80;55.60;;;;;;4973355;28;20362;-80
2021/01/06 06:18:03;;;;;;;9.02;1.40;;;15.90;55.80;;;;;;4996853;28;20038;-81
2021/01/06 06:21:01;;;;;;;6.10;1.02;;;16.00;55.80;;;;;;4996548;28;20042;-80
2021/01/06 06:24:12;;;;;;;4.35;1.00;;;15.90;55.60;;;;;;4978985;28;20473;-81
2021/01/06 06:26:45;;;;;;;14.05;1.88;;;16.00;55.50;;;;;;4996057;28;20105;-81
2021/01/06 06:29:14;;;;;;;10.93;2.00;;;16.00;55.90;;;;;;4996834;28;20053;-80
2021/01/06 06:31:49;;;;;;;16.85;2.20;;;16.00;54.90;;;;;;4995130;28;20050;-80
2021/01/06 06:34:15;;;;;;;16.08;1.67;;;16.00;53.90;;;;;;4996533;28;20121;-80
2021/01/06 06:36:47;;;;;;;7.03;1.13;;;15.90;54.20;;;;;;4996540;28;20065;-80
2021/01/06 06:39:30;;;;;;;6.63;1.20;;;16.00;54.40;;;;;;4996227;28;20124;-80
2021/01/06 06:42:22;;;;;;;10.50;1.73;;;16.00;54.40;;;;;;4996190;28;20516;-79
2021/01/06 06:44:50;;;;;;;9.52;1.25;;;16.10;54.50;;;;;;4989037;28;20065;-80
2021/01/06 06:47:18;;;;;;;4.55;0.98;;;16.10;54.80;;;;;;4995954;28;20096;-80
2021/01/06 06:49:53;;;;;;;10.13;0.90;;;16.20;54.80;;;;;;4979086;28;20121;-81
2021/01/06 06:52:24;;;;;;;2.63;0.95;;;16.30;54.20;;;;;;4996046;28;20093;-81
2021/01/06 06:55:09;;;;;;;4.05;0.90;;;16.30;54.10;;;;;;4995857;28;20105;-81
2021/01/06 06:58:16;;;;;;;9.75;1.40;;;16.30;54.00;;;;;;4995949;28;20045;-81
2021/01/06 07:00:42;;;;;;;5.03;0.93;;;16.30;53.50;;;;;;5011460;28;20038;-82
2021/01/06 07:03:08;;;;;;;7.07;1.27;;;16.30;53.20;;;;;;4995579;28;20049;-82
2021/01/06 07:05:37;;;;;;;2.65;0.80;;;16.30;53.10;;;;;;4996199;28;20460;-81
2021/01/06 07:08:32;;;;;;;3.58;0.88;;;16.30;53.20;;;;;;4978869;28;20042;-81
2021/01/06 07:11:21;;;;;;;9.40;1.33;;;16.20;53.30;;;;;;4991846;28;20089;-80
2021/01/06 07:13:58;;;;;;;7.85;1.17;;;16.20;53.40;;;;;;4995735;28;20050;-80
2021/01/06 07:16:40;;;;;;;7.85;0.73;;;16.20;54.10;;;;;;4978130;28;20041;-81
2021/01/06 07:19:21;;;;;;;4.47;0.95;;;16.30;54.50;;;;;;4996244;28;20076;-81
2021/01/06 07:22:04;;;;;;;4.93;0.70;;;16.40;54.20;;;;;;4996138;28;20441;-80
2021/01/06 07:24:29;;;;;;;5.20;0.90;;;16.40;54.00;;;;;;4978543;28;20445;-81
2021/01/06 07:26:59;;;;;;;5.15;1.25;;;16.40;53.80;;;;;;4978771;28;20109;-81
2021/01/06 07:29:32;;;;;;;5.32;0.88;;;16.40;53.60;;;;;;4996131;28;20038;-81
2021/01/06 07:32:03;;;;;;;3.53;0.68;;;16.40;53.40;;;;;;4995521;28;20126;-81
2021/01/06 07:34:38;;;;;;;1.13;0.70;;;16.40;53.30;;;;;;4995599;28;20052;-81
2021/01/06 07:37:08;;;;;;;5.18;1.10;;;16.50;53.30;;;;;;4995846;28;20121;-81
2021/01/06 07:39:35;;;;;;;2.00;0.60;;;16.40;53.30;;;;;;5010893;28;20089;-81
2021/01/06 07:42:23;;;;;;;3.00;0.57;;;16.50;53.00;;;;;;4995790;28;20070;-81
2021/01/06 07:44:49;;;;;;;3.17;0.73;;;16.50;53.00;;;;;;4978629;28;20104;-81
2021/01/06 07:47:20;;;;;;;4.50;0.80;;;16.40;53.50;;;;;;4995700;28;20038;-81
2021/01/06 07:49:56;;;;;;;2.70;0.52;;;16.50;52.80;;;;;;4978609;28;20077;-81
2021/01/06 07:52:44;;;;;;;2.55;0.40;;;16.50;52.60;;;;;;4995626;28;20058;-81
2021/01/06 07:55:35;;;;;;;2.63;0.75;;;16.50;52.60;;;;;;4996373;28;20042;-81
2021/01/06 07:58:07;;;;;;;1.83;0.60;;;16.50;52.50;;;;;;4995585;28;20081;-81
2021/01/06 08:00:46;;;;;;;1.98;0.77;;;16.50;52.30;;;;;;4978571;28;20042;-81
2021/01/06 08:03:42;;;;;;;2.88;0.77;;;16.50;52.30;;;;;;4995322;28;20046;-81
2021/01/06 08:06:08;;;;;;;2.75;0.75;;;16.50;52.20;;;;;;5010430;28;20034;-80
2021/01/06 08:08:52;;;;;;;5.90;1.10;;;16.50;52.50;;;;;;4995757;28;20081;-81
2021/01/06 08:11:20;;;;;;;3.17;0.65;;;16.50;52.50;;;;;;4978595;28;20038;-80
2021/01/06 08:13:49;;;;;;;4.03;0.70;;;16.50;52.50;;;;;;4995539;28;20345;-80
2021/01/06 08:16:24;;;;;;;4.82;1.00;;;16.50;52.40;;;;;;4995188;28;20438;-80
2021/01/06 08:19:08;;;;;;;2.55;0.63;;;16.50;52.20;;;;;;4995698;28;20038;-81
2021/01/06 08:21:50;;;;;;;11.63;0.90;;;16.50;52.20;;;;;;4995332;28;20038;-80
2021/01/06 08:24:21;;;;;;;7.10;1.20;;;16.50;52.30;;;;;;4995655;28;20045;-81
2021/01/06 08:26:59;;;;;;;6.70;0.80;;;16.50;52.50;;;;;;5010548;28;20042;-81
2021/01/06 08:29:28;;;;;;;5.47;0.65;;;16.50;52.30;;;;;;4998533;28;20034;-81
2021/01/06 08:31:57;;;;;;;3.50;0.40;;;16.50;52.30;;;;;;4981627;28;20453;-81
2021/01/06 08:34:34;;;;;;;6.15;0.73;;;16.50;52.30;;;;;;5013829;28;20483;-80
2021/01/06 08:37:24;;;;;;;6.00;0.88;;;16.50;52.30;;;;;;4998654;28;20039;-81
2021/01/06 08:39:52;;;;;;;2.33;0.52;;;16.50;52.40;;;;;;4975745;28;20133;-81
2021/01/06 08:42:24;;;;;;;2.83;0.75;;;16.40;52.50;;;;;;4998274;28;20369;-81
2021/01/06 08:45:00;;;;;;;3.50;1.08;;;16.50;52.60;;;;;;4981658;28;20046;-80
2021/01/06 08:47:34;;;;;;;4.50;0.80;;;16.50;52.60;;;;;;4998626;28;20034;-81
2021/01/06 08:50:15;;;;;;;7.05;1.20;;;16.50;52.70;;;;;;4998675;28;20049;-81
2021/01/06 08:52:42;;;;;;;5.95;0.80;;;16.50;52.70;;;;;;4998501;28;20038;-82
2021/01/06 08:55:28;;;;;;;4.53;1.25;;;16.50;52.70;;;;;;4981560;28;20056;-81
2021/01/06 08:58:08;;;;;;;2.97;0.88;;;16.50;52.60;;;;;;4998257;28;20046;-77
2021/01/06 09:00:37;;;;;;;5.57;1.02;;;16.50;52.60;;;;;;4998222;28;20038;-81
2021/01/06 09:03:24;;;;;;;6.13;1.40;;;16.50;52.50;;;;;;4998346;28;20073;-81
2021/01/06 09:06:00;;;;;;;3.90;0.98;;;16.50;52.40;;;;;;4998034;28;20107;-81
2021/01/06 09:08:38;;;;;;;4.55;1.15;;;16.50;52.30;;;;;;4998400;28;20042;-81
2021/01/06 09:11:08;;;;;;;8.32;1.75;;;16.50;52.20;;;;;;4998367;28;20057;-81
2021/01/06 09:13:43;;;;;;;5.25;1.48;;;16.50;52.20;;;;;;4998226;28;20045;-79
2021/01/06 09:16:15;;;;;;;4.70;1.55;;;16.50;52.20;;;;;;4997792;28;20116;-80
2021/01/06 09:18:50;;;;;;;8.70;1.58;;;16.50;52.00;;;;;;5013354;28;20096;-80
2021/01/06 09:21:23;;;;;;;13.07;4.10;;;16.50;52.20;;;;;;4965317;28;20125;-81
2021/01/06 09:23:51;;;;;;;8.90;2.30;;;16.50;52.00;;;;;;4997690;28;20030;-83
2021/01/06 09:26:22;;;;;;;7.47;3.28;;;16.50;52.20;;;;;;4980657;28;20042;-81
2021/01/06 09:29:00;;;;;;;10.25;3.30;;;16.50;52.30;;;;;;4980545;28;20361;-81
2021/01/06 09:31:27;;;;;;;18.58;4.25;;;16.50;52.20;;;;;;4997967;28;20053;-83
2021/01/06 09:33:54;;;;;;;24.02;4.45;;;16.40;52.00;;;;;;4964589;28;20141;-81
2021/01/06 09:36:29;;;;;;;21.65;3.97;;;16.50;52.30;;;;;;4980669;28;20046;-87
2021/01/06 09:38:58;;;;;;;17.20;4.03;;;16.50;52.00;;;;;;4964575;28;20046;-84
2021/01/06 09:41:29;;;;;;;13.40;3.25;;;16.40;52.30;;;;;;4979626;28;20046;-84
2021/01/06 09:44:08;;;;;;;8.23;3.28;;;16.40;52.40;;;;;;4964293;28;20377;-84
2021/01/06 09:46:50;;;;;;;13.63;3.55;;;16.40;52.30;;;;;;4964208;28;20049;-84
2021/01/06 09:49:48;;;;;;;6.90;2.78;;;16.50;52.40;;;;;;5012970;28;20042;-84
2021/01/06 09:52:35;;;;;;;12.23;2.78;;;16.50;52.40;;;;;;4979654;28;20047;-84
2021/01/06 09:55:01;;;;;;;6.82;2.60;;;16.50;52.30;;;;;;4981193;28;20054;-84
2021/01/06 09:57:29;;;;;;;8.25;2.55;;;16.50;52.30;;;;;;4964505;28;20113;-85
2021/01/06 10:00:07;;;;;;;11.15;2.30;;;16.50;52.10;;;;;;4964571;28;20058;-84
2021/01/06 10:02:36;;;;;;;6.50;2.00;;;16.40;52.00;;;;;;4964328;28;20409;-84
2021/01/06 10:05:20;;;;;;;5.43;1.90;;;16.40;51.90;;;;;;4963636;28;20057;-84
2021/01/06 10:07:53;;;;;;;8.77;1.95;;;16.40;51.90;;;;;;4996100;28;20054;-86
2021/01/06 10:10:32;;;;;;;7.30;2.03;;;16.40;51.80;;;;;;4997887;28;20038;-84
2021/01/06 10:13:56;;;;;;;5.47;1.80;;;16.40;51.80;;;;;;4979915;28;20054;-84
2021/01/06 10:16:36;;;;;;;8.40;1.92;;;16.40;51.70;;;;;;4940156;29;20139;-85
2021/01/06 10:19:38;;;;;;;5.32;1.80;;;16.30;51.70;;;;;;4924643;29;20051;-84
2021/01/06 10:22:25;;;;;;;6.13;1.70;;;16.30;51.70;;;;;;4956437;28;20046;-85
2021/01/06 10:24:59;;;;;;;4.60;1.65;;;16.30;51.70;;;;;;4995468;28;20070;-84
2021/01/06 10:27:38;;;;;;;2.58;1.45;;;16.30;51.70;;;;;;4995955;28;20046;-84
2021/01/06 10:30:14;;;;;;;4.15;1.95;;;16.20;51.60;;;;;;4963381;28;20389;-84
2021/01/06 10:33:05;;;;;;;6.03;1.92;;;16.20;51.60;;;;;;4964327;28;20461;-84
2021/01/06 10:35:36;;;;;;;4.35;1.80;;;16.20;51.60;;;;;;4979528;28;20061;-84
2021/01/06 10:38:32;;;;;;;3.33;1.83;;;16.20;51.60;;;;;;4995571;28;20078;-84
2021/01/06 10:41:31;;;;;;;4.80;2.00;;;16.20;51.50;;;;;;4963343;28;20073;-85
2021/01/06 10:43:59;;;;;;;3.83;1.90;;;16.10;51.50;;;;;;4963020;28;20046;-84
2021/01/06 10:46:47;;;;;;;4.57;2.10;;;16.10;51.60;;;;;;4963585;28;20074;-84
2021/01/06 10:49:33;;;;;;;3.72;2.00;;;16.10;51.50;;;;;;4979261;28;20038;-84
2021/01/06 10:52:08;;;;;;;3.92;2.03;;;16.00;51.50;;;;;;4978845;28;20034;-84
2021/01/06 10:54:47;;;;;;;5.75;2.10;;;16.00;51.50;;;;;;4995399;28;20042;-84
2021/01/06 10:57:33;;;;;;;3.55;2.38;;;16.00;51.50;;;;;;4963384;28;20060;-84
2021/01/06 11:00:16;;;;;;;2.58;1.58;;;16.00;51.50;;;;;;4963111;28;20053;-85
2021/01/06 11:03:18;;;;;;;3.28;1.65;;;16.00;51.50;;;;;;4978852;28;20046;-84
2021/01/06 11:05:53;;;;;;;3.22;1.40;;;16.00;51.50;;;;;;4962998;28;20050;-84
2021/01/06 11:08:44;;;;;;;3.00;1.73;;;16.00;51.60;;;;;;4995971;28;20061;-84
2021/01/06 11:11:42;;;;;;;2.03;1.30;;;15.90;51.40;;;;;;4995240;28;20133;-84
2021/01/06 11:14:50;;;;;;;4.78;1.45;;;15.90;51.40;;;;;;4979640;28;20053;-84
2021/01/06 11:17:28;;;;;;;4.68;1.83;;;15.90;51.50;;;;;;4955929;28;20064;-84
2021/01/06 11:20:34;;;;;;;3.33;1.50;;;15.80;51.50;;;;;;4963438;28;20097;-84
2021/01/06 11:23:35;;;;;;;2.88;1.48;;;15.80;51.50;;;;;;4962937;28;20500;-85
2021/01/06 11:26:31;;;;;;;2.58;1.38;;;15.80;51.50;;;;;;4978641;28;20038;-84
2021/01/06 11:29:16;;;;;;;4.07;2.17;;;15.80;51.50;;;;;;4994933;28;20050;-84
2021/01/06 11:32:19;;;;;;;3.63;1.52;;;15.80;51.60;;;;;;5011714;28;20041;-85
2021/01/06 11:34:52;;;;;;;3.67;2.05;;;15.80;51.50;;;;;;4979295;28;20469;-84
2021/01/06 11:37:31;;;;;;;5.63;2.20;;;15.80;51.60;;;;;;4962793;28;20483;-84
2021/01/06 11:39:58;;;;;;;4.65;1.95;;;15.70;51.50;;;;;;4962892;28;20369;-85
2021/01/06 11:42:45;;;;;;;4.32;2.20;;;15.70;51.60;;;;;;4978625;28;20046;-84
2021/01/06 11:45:13;;;;;;;3.83;1.65;;;15.80;51.50;;;;;;4962516;28;20400;-84
2021/01/06 11:47:55;;;;;;;2.35;1.50;;;15.70;52.20;;;;;;4978802;28;20089;-84
2021/01/06 11:50:44;;;;;;;3.67;1.65;;;15.70;51.40;;;;;;4962794;28;20054;-84
2021/01/06 11:53:15;;;;;;;4.88;2.10;;;15.70;51.40;;;;;;4962606;28;20054;-84
2021/01/06 11:55:48;;;;;;;4.30;2.40;;;15.70;51.50;;;;;;4963315;28;20353;-84
2021/01/06 11:58:14;;;;;;;3.13;1.73;;;15.60;51.40;;;;;;4962520;28;20393;-84
2021/01/06 12:01:31;;;;;;;3.40;2.08;;;15.70;51.40;;;;;;4994959;28;20093;-85
2021/01/06 12:04:26;;;;;;;3.30;1.50;;;15.70;51.40;;;;;;4954082;28;20062;-84
2021/01/06 12:07:06;;;;;;;5.10;1.77;;;15.70;51.50;;;;;;4998378;28;20050;-85
2021/01/06 12:09:56;;;;;;;2.97;1.38;;;15.70;51.40;;;;;;4982498;28;20034;-84
2021/01/06 12:12:49;;;;;;;4.70;1.88;;;15.70;51.40;;;;;;4998439;28;20046;-84
2021/01/06 12:15:22;;;;;;;2.70;1.52;;;15.70;51.40;;;;;;4998961;28;20058;-84
2021/01/06 12:17:55;;;;;;;3.00;1.70;;;15.70;51.50;;;;;;4998513;28;20069;-84
2021/01/06 12:20:27;;;;;;;2.80;1.40;;;15.70;51.40;;;;;;4966416;28;20050;-84
2021/01/06 12:23:15;;;;;;;4.72;1.50;;;15.70;51.40;;;;;;4981898;28;20045;-84
2021/01/06 12:25:52;;;;;;;2.60;1.30;;;15.70;51.40;;;;;;4998379;28;20532;-84
2021/01/06 12:28:28;;;;;;;3.75;1.30;;;15.60;51.40;;;;;;4965845;28;20053;-84
2021/01/06 12:31:37;;;;;;;2.17;1.40;;;15.60;51.30;;;;;;4998573;28;20070;-84
2021/01/06 12:34:15;;;;;;;2.65;1.45;;;15.60;51.40;;;;;;4976928;28;20124;-85
2021/01/06 12:37:05;;;;;;;2.67;1.30;;;15.60;51.40;;;;;;4966408;28;20420;-84
2021/01/06 12:39:36;;;;;;;2.72;1.30;;;15.60;51.30;;;;;;4965801;28;20058;-84
2021/01/06 12:42:21;;;;;;;2.30;0.90;;;15.60;51.40;;;;;;4965606;28;20116;-84
2021/01/06 12:45:13;;;;;;;3.80;1.30;;;15.60;51.30;;;;;;4965463;28;20096;-84
2021/01/06 12:48:05;;;;;;;2.17;1.10;;;15.60;51.30;;;;;;5013860;28;20350;-84
2021/01/06 12:50:53;;;;;;;2.42;0.90;;;15.60;51.30;;;;;;4963034;28;20081;-85
2021/01/06 12:53:26;;;;;;;7.55;1.30;;;15.60;51.30;;;;;;4965475;28;20050;-81
2021/01/06 12:56:22;;;;;;;9.68;1.30;;;15.60;51.20;;;;;;4980806;28;20117;-81
2021/01/06 12:59:03;;;;;;;3.60;0.80;;;15.50;51.80;;;;;;4998863;28;20039;-83
2021/01/06 13:01:42;;;;;;;5.07;1.20;;;15.40;52.00;;;;;;4981699;28;20062;-83
2021/01/06 13:04:10;;;;;;;3.63;0.90;;;15.40;52.00;;;;;;4981153;28;20046;-83
2021/01/06 13:06:57;;;;;;;4.50;1.00;;;15.40;52.10;;;;;;4998744;28;20049;-83
2021/01/06 13:09:34;;;;;;;10.75;1.35;;;15.40;52.20;;;;;;4980841;28;20030;-83
2021/01/06 13:12:09;;;;;;;9.23;1.20;;;15.40;52.90;;;;;;4997939;28;20062;-82
2021/01/06 13:14:35;;;;;;;4.47;1.00;;;15.40;53.00;;;;;;5011991;28;20039;-82
2021/01/06 13:17:29;;;;;;;4.13;1.00;;;15.40;53.10;;;;;;5013259;28;20046;-83
2021/01/06 13:20:35;;;;;;;3.00;0.47;;;15.50;53.00;;;;;;4998369;28;20042;-83
2021/01/06 13:23:17;;;;;;;2.88;0.60;;;15.60;53.10;;;;;;4965003;28;20050;-82
2021/01/06 13:25:46;;;;;;;1.50;0.50;;;15.60;53.60;;;;;;5013407;28;20137;-82
2021/01/06 13:28:30;;;;;;;5.07;1.25;;;15.60;53.20;;;;;;5013191;28;20049;-79
2021/01/06 13:31:21;;;;;;;4.63;0.63;;;15.60;53.00;;;;;;4997666;28;20042;-81
2021/01/06 13:34:14;;;;;;;7.35;0.98;;;15.70;53.30;;;;;;4997801;28;20054;-81